Genco Loire — V7GN8 — position and weather

sailwx.info

Track history (hours):
 
Tides and Currents Weather Stations Pressure Air Temp Water Temp Dewpoint Dewpoint Depression Visibility Wind Speed Wind Dir Waves Ship Positions

Genco Loire

Last reported at 2017-Jan-20 07:33 UTC. Time now 2017-Jan-20 07:59 UTC.
Position N 54°45' W 005°12'.

Length 190 m; draft 6.5 m.

MMSI: 538002760.

Date/timePositionNaut miles runAvg speedWind from/ knotsBaromVisibWave heightAir tempDewpointWater temp
2017-Jan-20 07:33N 54°45' W 005°12'1 1.3
2017-Jan-20 06:33N 54°44' W 005°11'1 1.0
2017-Jan-20 05:33N 54°43' W 005°11'1 0.5
2017-Jan-20 04:33N 54°42' W 005°11'0 0.4
2017-Jan-20 03:33N 54°42' W 005°12'1 0.8
2017-Jan-20 02:33N 54°43' W 005°13'1 1.0
2017-Jan-20 01:33N 54°43' W 005°14'1 0.8
2017-Jan-20 00:33N 54°44' W 005°15'4 4.4
2017-Jan-19 23:33N 54°48' W 005°20'1212.4
2017-Jan-19 22:33N 54°60' W 005°25'1610.6
2017-Jan-19 21:05N 55°12' W 005°42'10 2.7
2017-Jan-19 17:29N 55°10' W 005°25'3 2.8
2017-Jan-19 16:16N 55°11' W 005°19'1 0.9
2017-Jan-19 15:05N 55°10' W 005°21'2 1.2
2017-Jan-19 13:30N 55°10' W 005°24'3 1.5
2017-Jan-19 11:14N 55°09' W 005°30'1 1.3
2017-Jan-19 10:32N 55°09' W 005°31'1 0.8
2017-Jan-19 09:32N 55°09' W 005°33'3 2.8
2017-Jan-19 08:27N 55°06' W 005°31'4 4.1
2017-Jan-19 07:29N 55°02' W 005°28'1313.6
2017-Jan-19 06:33N 54°51' W 005°18'5 5.2
2017-Jan-19 05:33N 54°47' W 005°12'1 1.0
2017-Jan-19 04:33N 54°46' W 005°13'1 1.0
2017-Jan-19 03:33N 54°46' W 005°14'1 0.8
2017-Jan-19 02:33N 54°46' W 005°15'9 8.7
2017-Jan-19 01:33N 54°52' W 005°25'1111.0
2017-Jan-19 00:33N 55°03' W 005°31'6 5.6
2017-Jan-18 23:30N 55°09' W 005°32'1 0.3
2017-Jan-18 19:05N 55°08' W 005°33'5 9.2
2017-Jan-18 18:32N 55°04' W 005°27'5 4.8
2017-Jan-18 17:31N 54°59' W 005°24'6 5.8
2017-Jan-18 16:31N 54°53' W 005°24'3 3.4
2017-Jan-18 15:33N 54°51' W 005°21'1 0.9
2017-Jan-18 14:33N 54°50' W 005°21'7 7.1
2017-Jan-18 13:33N 54°44' W 005°29'10 9.9
2017-Jan-18 12:33N 54°42' W 005°46'7 0.6
2017-Jan-18 01:28N 54°37' W 005°54'1 0.0
2017-Jan-16 12:33N 54°38' W 005°53'7 7.0
2017-Jan-16 11:33N 54°42' W 005°44'3 2.6
2017-Jan-16 10:31N 54°44' W 005°40'0 0.0
2017-Jan-16 09:31N 54°44' W 005°40'0 0.0
2017-Jan-16 08:31N 54°44' W 005°40'0 0.0
2017-Jan-16 07:31N 54°44' W 005°40'0 0.1
2017-Jan-16 06:31N 54°44' W 005°40'0 0.1
2017-Jan-16 05:31N 54°44' W 005°40'0 0.0
2017-Jan-16 04:31N 54°44' W 005°40'0 0.1
2017-Jan-16 03:28N 54°44' W 005°40'4 4.2
2017-Jan-16 02:34N 54°47' W 005°36'4 3.9
2017-Jan-16 01:33N 54°51' W 005°37'2613.0
2017-Jan-15 23:33N 55°14' W 005°58'1514.9
2017-Jan-15 22:33N 55°23' W 006°20'  
Track history (hours):
 
Tides and Currents Weather Stations Pressure Air Temp Water Temp Dewpoint Dewpoint Depression Visibility Wind Speed Wind Dir Waves Ship Positions

Genco Loire

Last reported at 2017-Jan-20 07:33 UTC. Time now 2017-Jan-20 07:59 UTC.
Position N 54°45' W 005°12'.

Length 190 m; draft 6.5 m.

MMSI: 538002760.

Date/timePositionNaut miles runAvg speedWind from/ knotsBaromVisibWave heightAir tempDewpointWater temp
2017-Jan-20 07:33N 54°45' W 005°12'1 1.3
2017-Jan-20 06:33N 54°44' W 005°11'1 1.0
2017-Jan-20 05:33N 54°43' W 005°11'1 0.5
2017-Jan-20 04:33N 54°42' W 005°11'0 0.4
2017-Jan-20 03:33N 54°42' W 005°12'1 0.8
2017-Jan-20 02:33N 54°43' W 005°13'1 1.0
2017-Jan-20 01:33N 54°43' W 005°14'1 0.8
2017-Jan-20 00:33N 54°44' W 005°15'4 4.4
2017-Jan-19 23:33N 54°48' W 005°20'1212.4
2017-Jan-19 22:33N 54°60' W 005°25'1610.6
2017-Jan-19 21:05N 55°12' W 005°42'10 2.7
2017-Jan-19 17:29N 55°10' W 005°25'3 2.8
2017-Jan-19 16:16N 55°11' W 005°19'1 0.9
2017-Jan-19 15:05N 55°10' W 005°21'2 1.2
2017-Jan-19 13:30N 55°10' W 005°24'3 1.5
2017-Jan-19 11:14N 55°09' W 005°30'1 1.3
2017-Jan-19 10:32N 55°09' W 005°31'1 0.8
2017-Jan-19 09:32N 55°09' W 005°33'3 2.8
2017-Jan-19 08:27N 55°06' W 005°31'4 4.1
2017-Jan-19 07:29N 55°02' W 005°28'1313.6
2017-Jan-19 06:33N 54°51' W 005°18'5 5.2
2017-Jan-19 05:33N 54°47' W 005°12'1 1.0
2017-Jan-19 04:33N 54°46' W 005°13'1 1.0
2017-Jan-19 03:33N 54°46' W 005°14'1 0.8
2017-Jan-19 02:33N 54°46' W 005°15'9 8.7
2017-Jan-19 01:33N 54°52' W 005°25'1111.0
2017-Jan-19 00:33N 55°03' W 005°31'6 5.6
2017-Jan-18 23:30N 55°09' W 005°32'1 0.3
2017-Jan-18 19:05N 55°08' W 005°33'5 9.2
2017-Jan-18 18:32N 55°04' W 005°27'5 4.8
2017-Jan-18 17:31N 54°59' W 005°24'6 5.8
2017-Jan-18 16:31N 54°53' W 005°24'3 3.4
2017-Jan-18 15:33N 54°51' W 005°21'1 0.9
2017-Jan-18 14:33N 54°50' W 005°21'7 7.1
2017-Jan-18 13:33N 54°44' W 005°29'10 9.9
2017-Jan-18 12:33N 54°42' W 005°46'7 0.6
2017-Jan-18 01:28N 54°37' W 005°54'1 0.0
2017-Jan-16 12:33N 54°38' W 005°53'7 7.0
2017-Jan-16 11:33N 54°42' W 005°44'3 2.6
2017-Jan-16 10:31N 54°44' W 005°40'0 0.0
2017-Jan-16 09:31N 54°44' W 005°40'0 0.0
2017-Jan-16 08:31N 54°44' W 005°40'0 0.0
2017-Jan-16 07:31N 54°44' W 005°40'0 0.1
2017-Jan-16 06:31N 54°44' W 005°40'0 0.1
2017-Jan-16 05:31N 54°44' W 005°40'0 0.0
2017-Jan-16 04:31N 54°44' W 005°40'0 0.1
2017-Jan-16 03:28N 54°44' W 005°40'4 4.2
2017-Jan-16 02:34N 54°47' W 005°36'4 3.9
2017-Jan-16 01:33N 54°51' W 005°37'2613.0
2017-Jan-15 23:33N 55°14' W 005°58'1514.9
2017-Jan-15 22:33N 55°23' W 006°20'  

Dump ship's entire track history